sensor_id;sensor_type;location;lat;lon;timestamp;pressure;altitude;pressure_sealevel;temperature;humidity
20971;BME280;10644;48.834;10.088;2022-07-10T00:00:15;97277.50;;;23.18;55.11
20971;BME280;10644;48.834;10.088;2022-07-10T00:02:55;97269.78;;;23.17;55.28
20971;BME280;10644;48.834;10.088;2022-07-10T00:05:25;97275.19;;;23.06;55.79
20971;BME280;10644;48.834;10.088;2022-07-10T00:07:52;97264.63;;;22.98;56.42
20971;BME280;10644;48.834;10.088;2022-07-10T00:10:20;97273.81;;;23.02;56.07
20971;BME280;10644;48.834;10.088;2022-07-10T00:12:55;97268.00;;;23.08;55.67
20971;BME280;10644;48.834;10.088;2022-07-10T00:15:30;97267.72;;;23.11;55.44
20971;BME280;10644;48.834;10.088;2022-07-10T00:18:09;97266.47;;;23.15;55.20
20971;BME280;10644;48.834;10.088;2022-07-10T00:20:34;97272.66;;;23.14;55.34
20971;BME280;10644;48.834;10.088;2022-07-10T00:23:05;97263.34;;;23.02;55.02
20971;BME280;10644;48.834;10.088;2022-07-10T00:25:30;97264.91;;;22.95;55.48
20971;BME280;10644;48.834;10.088;2022-07-10T00:27:58;97254.94;;;22.81;55.71
20971;BME280;10644;48.834;10.088;2022-07-10T00:30:23;97257.72;;;22.70;56.17
20971;BME280;10644;48.834;10.088;2022-07-10T00:32:50;97244.00;;;22.58;56.46
20971;BME280;10644;48.834;10.088;2022-07-10T00:35:19;97260.34;;;22.70;56.63
20971;BME280;10644;48.834;10.088;2022-07-10T00:37:44;97257.16;;;22.76;56.24
20971;BME280;10644;48.834;10.088;2022-07-10T00:40:18;97250.09;;;22.86;55.69
20971;BME280;10644;48.834;10.088;2022-07-10T00:42:45;97240.66;;;22.75;56.47
20971;BME280;10644;48.834;10.088;2022-07-10T00:45:12;97253.56;;;22.77;56.16
20971;BME280;10644;48.834;10.088;2022-07-10T00:50:12;97249.41;;;22.84;55.91
20971;BME280;10644;48.834;10.088;2022-07-10T00:52:57;97249.41;;;22.84;55.34
20971;BME280;10644;48.834;10.088;2022-07-10T00:55:23;97260.72;;;22.75;55.42
20971;BME280;10644;48.834;10.088;2022-07-10T00:57:55;97258.81;;;22.77;55.24
20971;BME280;10644;48.834;10.088;2022-07-10T01:00:23;97250.84;;;22.69;55.21
20971;BME280;10644;48.834;10.088;2022-07-10T01:02:56;97252.81;;;22.57;55.66
20971;BME280;10644;48.834;10.088;2022-07-10T01:05:21;97248.41;;;22.58;55.30
20971;BME280;10644;48.834;10.088;2022-07-10T01:07:46;97246.75;;;22.57;55.15
20971;BME280;10644;48.834;10.088;2022-07-10T01:10:15;97240.16;;;22.62;54.50
20971;BME280;10644;48.834;10.088;2022-07-10T01:12:44;97239.59;;;22.68;54.46
20971;BME280;10644;48.834;10.088;2022-07-10T01:15:10;97245.34;;;22.72;54.73
20971;BME280;10644;48.834;10.088;2022-07-10T01:17:40;97246.16;;;22.72;54.65
20971;BME280;10644;48.834;10.088;2022-07-10T01:20:10;97237.94;;;22.67;54.25
20971;BME280;10644;48.834;10.088;2022-07-10T01:22:56;97246.00;;;22.74;54.27
20971;BME280;10644;48.834;10.088;2022-07-10T01:25:21;97239.88;;;22.56;54.61
20971;BME280;10644;48.834;10.088;2022-07-10T01:27:50;97241.84;;;22.54;54.49
20971;BME280;10644;48.834;10.088;2022-07-10T01:30:16;97246.34;;;22.52;54.88
20971;BME280;10644;48.834;10.088;2022-07-10T01:32:43;97237.44;;;22.45;55.02
20971;BME280;10644;48.834;10.088;2022-07-10T01:35:09;97244.31;;;22.46;55.18
20971;BME280;10644;48.834;10.088;2022-07-10T01:37:38;97237.72;;;22.42;54.45
20971;BME280;10644;48.834;10.088;2022-07-10T01:40:07;97241.03;;;22.44;54.64
20971;BME280;10644;48.834;10.088;2022-07-10T01:42:34;97235.66;;;22.26;55.00
20971;BME280;10644;48.834;10.088;2022-07-10T01:45:07;97242.16;;;22.22;54.92
20971;BME280;10644;48.834;10.088;2022-07-10T01:47:33;97237.59;;;22.24;54.84
20971;BME280;10644;48.834;10.088;2022-07-10T01:49:59;97238.28;;;22.26;54.84
20971;BME280;10644;48.834;10.088;2022-07-10T01:52:24;97228.66;;;22.27;54.61
20971;BME280;10644;48.834;10.088;2022-07-10T01:54:59;97235.53;;;22.28;54.57
20971;BME280;10644;48.834;10.088;2022-07-10T01:57:27;97232.66;;;22.12;55.04
20971;BME280;10644;48.834;10.088;2022-07-10T01:59:52;97231.84;;;22.02;55.39
20971;BME280;10644;48.834;10.088;2022-07-10T02:02:29;97244.66;;;21.86;55.66
20971;BME280;10644;48.834;10.088;2022-07-10T02:05:05;97234.59;;;21.62;55.74
20971;BME280;10644;48.834;10.088;2022-07-10T02:07:44;97225.81;;;21.54;56.21
20971;BME280;10644;48.834;10.088;2022-07-10T02:10:21;97217.94;;;21.25;56.66
20971;BME280;10644;48.834;10.088;2022-07-10T02:12:47;97227.00;;;21.21;57.13
20971;BME280;10644;48.834;10.088;2022-07-10T02:15:12;97222.59;;;21.12;57.15
20971;BME280;10644;48.834;10.088;2022-07-10T02:17:37;97235.84;;;21.00;57.70
20971;BME280;10644;48.834;10.088;2022-07-10T02:20:21;97234.38;;;21.07;57.29
20971;BME280;10644;48.834;10.088;2022-07-10T02:22:49;97228.88;;;21.10;57.44
20971;BME280;10644;48.834;10.088;2022-07-10T02:25:15;97242.31;;;20.96;57.99
20971;BME280;10644;48.834;10.088;2022-07-10T02:27:40;97244.63;;;20.99;58.08
20971;BME280;10644;48.834;10.088;2022-07-10T02:30:08;97237.63;;;20.90;58.23
20971;BME280;10644;48.834;10.088;2022-07-10T02:32:33;97241.22;;;20.78;58.39
20971;BME280;10644;48.834;10.088;2022-07-10T02:34:59;97239.84;;;20.74;58.42
20971;BME280;10644;48.834;10.088;2022-07-10T02:37:24;97244.66;;;20.78;58.44
20971;BME280;10644;48.834;10.088;2022-07-10T02:39:52;97249.88;;;20.78;58.58
20971;BME280;10644;48.834;10.088;2022-07-10T02:42:17;97242.19;;;20.77;58.61
20971;BME280;10644;48.834;10.088;2022-07-10T02:44:43;97240.91;;;20.92;58.68
20971;BME280;10644;48.834;10.088;2022-07-10T02:47:25;97246.97;;;21.02;57.84
20971;BME280;10644;48.834;10.088;2022-07-10T02:50:01;97227.34;;;20.98;57.74
20971;BME280;10644;48.834;10.088;2022-07-10T02:52:35;97237.09;;;20.96;57.75
20971;BME280;10644;48.834;10.088;2022-07-10T02:58:04;97243.63;;;20.90;58.20
20971;BME280;10644;48.834;10.088;2022-07-10T03:00:43;97242.22;;;20.86;58.20
20971;BME280;10644;48.834;10.088;2022-07-10T03:03:09;97236.47;;;20.53;59.20
20971;BME280;10644;48.834;10.088;2022-07-10T03:05:34;97246.25;;;20.60;59.26
20971;BME280;10644;48.834;10.088;2022-07-10T03:08:04;97237.16;;;20.55;59.80
20971;BME280;10644;48.834;10.088;2022-07-10T03:10:46;97235.25;;;20.57;58.90
20971;BME280;10644;48.834;10.088;2022-07-10T03:13:23;97232.47;;;20.49;59.48
20971;BME280;10644;48.834;10.088;2022-07-10T03:15:57;97225.88;;;20.45;59.48
20971;BME280;10644;48.834;10.088;2022-07-10T03:18:24;97230.91;;;20.37;59.63
20971;BME280;10644;48.834;10.088;2022-07-10T03:20:49;97238.81;;;20.35;60.21
20971;BME280;10644;48.834;10.088;2022-07-10T03:23:22;97234.78;;;20.22;60.60
20971;BME280;10644;48.834;10.088;2022-07-10T03:25:51;97246.41;;;20.18;60.72
20971;BME280;10644;48.834;10.088;2022-07-10T03:28:33;97235.63;;;20.22;60.15
20971;BME280;10644;48.834;10.088;2022-07-10T03:31:11;97249.06;;;20.07;61.12
20971;BME280;10644;48.834;10.088;2022-07-10T03:33:49;97247.63;;;20.03;60.77
20971;BME280;10644;48.834;10.088;2022-07-10T03:36:22;97248.06;;;20.19;60.05
20971;BME280;10644;48.834;10.088;2022-07-10T03:39:02;97251.50;;;20.19;60.18
20971;BME280;10644;48.834;10.088;2022-07-10T03:41:38;97245.47;;;20.19;60.64
20971;BME280;10644;48.834;10.088;2022-07-10T03:44:10;97247.59;;;20.14;60.29
20971;BME280;10644;48.834;10.088;2022-07-10T03:46:36;97245.34;;;20.20;60.42
20971;BME280;10644;48.834;10.088;2022-07-10T03:49:09;97250.91;;;20.16;60.38
20971;BME280;10644;48.834;10.088;2022-07-10T03:51:35;97264.31;;;20.11;60.95
20971;BME280;10644;48.834;10.088;2022-07-10T03:54:15;97258.53;;;20.08;60.54
20971;BME280;10644;48.834;10.088;2022-07-10T03:56:40;97257.09;;;20.04;60.95
20971;BME280;10644;48.834;10.088;2022-07-10T03:59:32;97258.59;;;19.86;61.35
20971;BME280;10644;48.834;10.088;2022-07-10T04:01:57;97254.34;;;19.85;61.08
20971;BME280;10644;48.834;10.088;2022-07-10T04:04:52;97258.88;;;19.83;61.42
20971;BME280;10644;48.834;10.088;2022-07-10T04:07:18;97252.75;;;19.73;61.85
20971;BME280;10644;48.834;10.088;2022-07-10T04:10:03;97262.78;;;19.77;61.53
20971;BME280;10644;48.834;10.088;2022-07-10T04:12:28;97257.84;;;19.95;60.98
20971;BME280;10644;48.834;10.088;2022-07-10T04:15:04;97260.16;;;20.09;60.40
20971;BME280;10644;48.834;10.088;2022-07-10T04:17:30;97250.94;;;20.05;60.46
20971;BME280;10644;48.834;10.088;2022-07-10T04:19:59;97254.34;;;20.16;60.12
20971;BME280;10644;48.834;10.088;2022-07-10T04:22:25;97257.06;;;20.15;60.28
20971;BME280;10644;48.834;10.088;2022-07-10T04:24:59;97257.00;;;20.26;59.95
20971;BME280;10644;48.834;10.088;2022-07-10T04:27:24;97256.44;;;20.22;59.80
20971;BME280;10644;48.834;10.088;2022-07-10T04:29:50;97249.09;;;19.96;60.52
20971;BME280;10644;48.834;10.088;2022-07-10T04:32:25;97258.28;;;20.11;59.92
20971;BME280;10644;48.834;10.088;2022-07-10T04:35:05;97253.50;;;20.16;59.67
20971;BME280;10644;48.834;10.088;2022-07-10T04:37:30;97264.28;;;20.32;59.64
20971;BME280;10644;48.834;10.088;2022-07-10T04:40:02;97263.78;;;20.17;60.21
20971;BME280;10644;48.834;10.088;2022-07-10T04:42:27;97266.44;;;20.27;59.85
20971;BME280;10644;48.834;10.088;2022-07-10T04:44:58;97262.72;;;20.20;59.48
20971;BME280;10644;48.834;10.088;2022-07-10T04:47:25;97253.00;;;20.22;59.69
20971;BME280;10644;48.834;10.088;2022-07-10T04:50:06;97268.44;;;20.14;59.80
20971;BME280;10644;48.834;10.088;2022-07-10T04:52:40;97267.03;;;20.10;59.67
20971;BME280;10644;48.834;10.088;2022-07-10T04:55:07;97255.41;;;20.14;60.00
20971;BME280;10644;48.834;10.088;2022-07-10T04:57:42;97259.16;;;20.21;59.59
20971;BME280;10644;48.834;10.088;2022-07-10T05:00:24;97265.63;;;20.26;59.34
20971;BME280;10644;48.834;10.088;2022-07-10T05:03:03;97257.06;;;20.15;59.62
20971;BME280;10644;48.834;10.088;2022-07-10T05:05:43;97259.78;;;20.13;59.99
20971;BME280;10644;48.834;10.088;2022-07-10T05:08:31;97269.97;;;20.05;60.40
20971;BME280;10644;48.834;10.088;2022-07-10T05:11:25;97264.88;;;20.04;60.14
20971;BME280;10644;48.834;10.088;2022-07-10T05:13:51;97258.41;;;20.09;60.19
20971;BME280;10644;48.834;10.088;2022-07-10T05:16:16;97272.38;;;20.29;60.04
20971;BME280;10644;48.834;10.088;2022-07-10T05:19:01;97266.28;;;20.19;59.55
20971;BME280;10644;48.834;10.088;2022-07-10T05:21:26;97264.72;;;19.96;60.44
20971;BME280;10644;48.834;10.088;2022-07-10T05:24:02;97269.34;;;19.61;60.64
20971;BME280;10644;48.834;10.088;2022-07-10T05:26:28;97266.34;;;19.34;61.68
20971;BME280;10644;48.834;10.088;2022-07-10T05:29:02;97274.47;;;19.40;61.55
20971;BME280;10644;48.834;10.088;2022-07-10T05:31:49;97272.22;;;19.47;60.97
20971;BME280;10644;48.834;10.088;2022-07-10T05:34:14;97264.94;;;19.30;61.52
20971;BME280;10644;48.834;10.088;2022-07-10T05:36:40;97262.31;;;19.41;60.91
20971;BME280;10644;48.834;10.088;2022-07-10T05:39:22;97267.59;;;19.50;60.13
20971;BME280;10644;48.834;10.088;2022-07-10T05:44:46;97269.50;;;19.80;59.80
20971;BME280;10644;48.834;10.088;2022-07-10T05:47:26;97272.44;;;19.86;59.44
20971;BME280;10644;48.834;10.088;2022-07-10T05:49:55;97278.75;;;19.73;59.89
20971;BME280;10644;48.834;10.088;2022-07-10T05:52:23;97272.47;;;19.44;60.32
20971;BME280;10644;48.834;10.088;2022-07-10T05:55:08;97290.28;;;19.48;60.64
20971;BME280;10644;48.834;10.088;2022-07-10T05:57:58;97290.97;;;19.61;60.11
20971;BME280;10644;48.834;10.088;2022-07-10T06:00:44;97293.56;;;19.61;60.42
20971;BME280;10644;48.834;10.088;2022-07-10T06:03:11;97289.59;;;19.46;60.56
20971;BME280;10644;48.834;10.088;2022-07-10T06:05:38;97291.81;;;19.51;60.09
20971;BME280;10644;48.834;10.088;2022-07-10T06:08:04;97297.28;;;19.37;60.75
20971;BME280;10644;48.834;10.088;2022-07-10T06:10:29;97301.75;;;19.46;60.13
20971;BME280;10644;48.834;10.088;2022-07-10T06:12:55;97308.84;;;19.44;60.15
20971;BME280;10644;48.834;10.088;2022-07-10T06:15:30;97299.84;;;19.48;59.69
20971;BME280;10644;48.834;10.088;2022-07-10T06:17:56;97311.97;;;19.27;60.17
20971;BME280;10644;48.834;10.088;2022-07-10T06:20:44;97305.22;;;19.13;60.35
20971;BME280;10644;48.834;10.088;2022-07-10T06:23:19;97311.22;;;19.14;60.51
20971;BME280;10644;48.834;10.088;2022-07-10T06:25:44;97293.03;;;19.14;60.21
20971;BME280;10644;48.834;10.088;2022-07-10T06:28:17;97314.75;;;19.02;59.80
20971;BME280;10644;48.834;10.088;2022-07-10T06:30:44;97318.06;;;18.71;60.89
20971;BME280;10644;48.834;10.088;2022-07-10T06:33:47;97318.53;;;18.87;60.23
20971;BME280;10644;48.834;10.088;2022-07-10T06:36:12;97327.03;;;18.78;60.65
20971;BME280;10644;48.834;10.088;2022-07-10T06:38:53;97334.09;;;18.87;59.77
20971;BME280;10644;48.834;10.088;2022-07-10T06:41:19;97331.88;;;18.82;58.67
20971;BME280;10644;48.834;10.088;2022-07-10T06:43:53;97331.53;;;18.65;59.33
20971;BME280;10644;48.834;10.088;2022-07-10T06:46:24;97332.22;;;18.78;59.09
20971;BME280;10644;48.834;10.088;2022-07-10T06:48:49;97332.72;;;18.94;58.83
20971;BME280;10644;48.834;10.088;2022-07-10T06:51:15;97329.06;;;18.96;57.03
20971;BME280;10644;48.834;10.088;2022-07-10T06:53:44;97341.69;;;19.12;56.65
20971;BME280;10644;48.834;10.088;2022-07-10T06:56:12;97341.69;;;19.01;57.64
20971;BME280;10644;48.834;10.088;2022-07-10T06:58:40;97334.72;;;18.90;57.69
20971;BME280;10644;48.834;10.088;2022-07-10T07:01:07;97341.44;;;19.04;57.46
20971;BME280;10644;48.834;10.088;2022-07-10T07:03:33;97326.31;;;18.98;56.51
20971;BME280;10644;48.834;10.088;2022-07-10T07:05:58;97340.03;;;19.00;56.47
20971;BME280;10644;48.834;10.088;2022-07-10T07:08:26;97337.66;;;18.75;57.06
20971;BME280;10644;48.834;10.088;2022-07-10T07:10:53;97333.06;;;18.89;55.88
20971;BME280;10644;48.834;10.088;2022-07-10T07:13:20;97331.28;;;18.90;56.18
20971;BME280;10644;48.834;10.088;2022-07-10T07:15:45;97330.00;;;18.84;56.77
20971;BME280;10644;48.834;10.088;2022-07-10T07:18:21;97334.13;;;19.09;54.67
20971;BME280;10644;48.834;10.088;2022-07-10T07:20:52;97335.91;;;19.08;54.80
20971;BME280;10644;48.834;10.088;2022-07-10T07:23:37;97332.47;;;19.19;53.50
20971;BME280;10644;48.834;10.088;2022-07-10T07:26:04;97332.34;;;19.20;52.66
20971;BME280;10644;48.834;10.088;2022-07-10T07:28:30;97334.22;;;19.40;52.46
20971;BME280;10644;48.834;10.088;2022-07-10T07:30:57;97341.09;;;19.19;50.96
20971;BME280;10644;48.834;10.088;2022-07-10T07:33:25;97338.13;;;19.13;51.91
20971;BME280;10644;48.834;10.088;2022-07-10T07:35:53;97335.19;;;19.06;50.28
20971;BME280;10644;48.834;10.088;2022-07-10T07:38:18;97337.44;;;19.11;50.40
20971;BME280;10644;48.834;10.088;2022-07-10T07:40:44;97345.81;;;19.14;50.18
20971;BME280;10644;48.834;10.088;2022-07-10T07:43:09;97339.34;;;19.31;49.77
20971;BME280;10644;48.834;10.088;2022-07-10T07:45:39;97342.28;;;19.37;49.21
20971;BME280;10644;48.834;10.088;2022-07-10T07:48:04;97347.22;;;19.51;48.65
20971;BME280;10644;48.834;10.088;2022-07-10T07:50:35;97343.09;;;19.49;48.71
20971;BME280;10644;48.834;10.088;2022-07-10T07:53:04;97334.38;;;19.50;48.01
20971;BME280;10644;48.834;10.088;2022-07-10T07:55:33;97326.91;;;19.45;48.70
20971;BME280;10644;48.834;10.088;2022-07-10T07:57:59;97330.81;;;19.51;48.63
20971;BME280;10644;48.834;10.088;2022-07-10T08:00:37;97335.84;;;19.74;48.16
20971;BME280;10644;48.834;10.088;2022-07-10T08:03:08;97344.75;;;19.50;48.56
20971;BME280;10644;48.834;10.088;2022-07-10T08:05:34;97317.81;;;19.51;48.37
20971;BME280;10644;48.834;10.088;2022-07-10T08:07:59;97331.28;;;19.45;48.70
20971;BME280;10644;48.834;10.088;2022-07-10T08:10:32;97334.53;;;19.69;48.04
20971;BME280;10644;48.834;10.088;2022-07-10T08:12:57;97328.81;;;19.86;48.20
20971;BME280;10644;48.834;10.088;2022-07-10T08:15:30;97317.75;;;20.15;47.67
20971;BME280;10644;48.834;10.088;2022-07-10T08:17:57;97324.22;;;20.21;48.01
20971;BME280;10644;48.834;10.088;2022-07-10T08:20:24;97336.97;;;20.24;47.10
20971;BME280;10644;48.834;10.088;2022-07-10T08:22:52;97340.59;;;20.12;46.06
20971;BME280;10644;48.834;10.088;2022-07-10T08:25:20;97350.44;;;19.97;46.52
20971;BME280;10644;48.834;10.088;2022-07-10T08:27:46;97328.69;;;19.56;47.00
20971;BME280;10644;48.834;10.088;2022-07-10T08:30:16;97337.84;;;19.71;47.43
20971;BME280;10644;48.834;10.088;2022-07-10T08:32:46;97334.97;;;19.85;47.53
20971;BME280;10644;48.834;10.088;2022-07-10T08:35:12;97345.78;;;20.12;47.14
20971;BME280;10644;48.834;10.088;2022-07-10T08:37:42;97343.31;;;20.31;46.62
20971;BME280;10644;48.834;10.088;2022-07-10T08:40:21;97327.47;;;20.34;46.65
20971;BME280;10644;48.834;10.088;2022-07-10T08:42:52;97339.69;;;20.22;46.82
20971;BME280;10644;48.834;10.088;2022-07-10T08:45:18;97329.22;;;20.13;47.03
20971;BME280;10644;48.834;10.088;2022-07-10T08:47:52;97331.81;;;20.13;46.99
20971;BME280;10644;48.834;10.088;2022-07-10T08:50:23;97337.47;;;20.18;46.16
20971;BME280;10644;48.834;10.088;2022-07-10T08:53:09;97344.84;;;20.13;45.99
20971;BME280;10644;48.834;10.088;2022-07-10T08:55:43;97321.66;;;20.10;46.63
20971;BME280;10644;48.834;10.088;2022-07-10T08:58:10;97332.63;;;20.13;45.95
20971;BME280;10644;48.834;10.088;2022-07-10T09:00:41;97325.31;;;20.07;46.51
20971;BME280;10644;48.834;10.088;2022-07-10T09:03:25;97323.50;;;20.60;46.84
20971;BME280;10644;48.834;10.088;2022-07-10T09:05:52;97317.78;;;20.66;45.79
20971;BME280;10644;48.834;10.088;2022-07-10T09:08:24;97324.91;;;20.64;45.79
20971;BME280;10644;48.834;10.088;2022-07-10T09:10:49;97327.69;;;20.72;45.41
20971;BME280;10644;48.834;10.088;2022-07-10T09:13:16;97318.50;;;20.68;45.38
20971;BME280;10644;48.834;10.088;2022-07-10T09:16:02;97330.13;;;20.64;45.21
20971;BME280;10644;48.834;10.088;2022-07-10T09:18:34;97319.94;;;20.61;45.04
20971;BME280;10644;48.834;10.088;2022-07-10T09:21:06;97328.78;;;20.69;45.14
20971;BME280;10644;48.834;10.088;2022-07-10T09:23:36;97329.09;;;20.76;45.38
20971;BME280;10644;48.834;10.088;2022-07-10T09:26:11;97323.78;;;21.07;44.82
20971;BME280;10644;48.834;10.088;2022-07-10T09:29:14;97338.72;;;20.96;44.81
20971;BME280;10644;48.834;10.088;2022-07-10T09:34:54;97329.09;;;20.76;44.80
20971;BME280;10644;48.834;10.088;2022-07-10T09:37:39;97322.81;;;20.78;44.84
20971;BME280;10644;48.834;10.088;2022-07-10T09:40:14;97321.03;;;20.99;45.05
20971;BME280;10644;48.834;10.088;2022-07-10T09:42:57;97312.19;;;21.21;44.35
20971;BME280;10644;48.834;10.088;2022-07-10T09:45:25;97317.63;;;21.48;43.96
20971;BME280;10644;48.834;10.088;2022-07-10T09:47:59;97322.66;;;21.40;43.62
20971;BME280;10644;48.834;10.088;2022-07-10T09:50:50;97309.47;;;21.32;44.14
20971;BME280;10644;48.834;10.088;2022-07-10T09:53:21;97312.22;;;21.70;43.84
20971;BME280;10644;48.834;10.088;2022-07-10T09:55:56;97307.84;;;21.89;42.97
20971;BME280;10644;48.834;10.088;2022-07-10T09:58:26;97294.38;;;22.03;43.22
20971;BME280;10644;48.834;10.088;2022-07-10T10:00:56;97300.66;;;22.10;42.59
20971;BME280;10644;48.834;10.088;2022-07-10T10:03:24;97302.63;;;21.99;42.55
20971;BME280;10644;48.834;10.088;2022-07-10T10:06:17;97302.75;;;21.78;42.80
20971;BME280;10644;48.834;10.088;2022-07-10T10:09:08;97298.47;;;21.68;42.79
20971;BME280;10644;48.834;10.088;2022-07-10T10:11:44;97286.13;;;21.70;42.73
20971;BME280;10644;48.834;10.088;2022-07-10T10:14:11;97290.78;;;22.04;41.79
20971;BME280;10644;48.834;10.088;2022-07-10T10:16:39;97296.97;;;22.03;42.16
20971;BME280;10644;48.834;10.088;2022-07-10T10:19:08;97289.28;;;22.02;41.33
20971;BME280;10644;48.834;10.088;2022-07-10T10:22:01;97306.03;;;21.71;41.98
20971;BME280;10644;48.834;10.088;2022-07-10T10:24:31;97300.69;;;22.01;41.43
20971;BME280;10644;48.834;10.088;2022-07-10T10:26:57;97312.50;;;21.86;39.83
20971;BME280;10644;48.834;10.088;2022-07-10T10:29:23;97306.44;;;21.76;40.55
20971;BME280;10644;48.834;10.088;2022-07-10T10:31:49;97304.25;;;21.90;39.86
20971;BME280;10644;48.834;10.088;2022-07-10T10:37:03;97297.38;;;22.08;40.36
20971;BME280;10644;48.834;10.088;2022-07-10T10:39:51;97303.44;;;21.99;39.46
20971;BME280;10644;48.834;10.088;2022-07-10T10:42:34;97308.22;;;22.23;39.81
20971;BME280;10644;48.834;10.088;2022-07-10T10:45:31;97301.50;;;22.39;38.86
20971;BME280;10644;48.834;10.088;2022-07-10T10:48:10;97307.13;;;22.25;39.37
20971;BME280;10644;48.834;10.088;2022-07-10T10:50:51;97319.19;;;21.79;40.77
20971;BME280;10644;48.834;10.088;2022-07-10T10:53:22;97310.28;;;22.19;39.56
20971;BME280;10644;48.834;10.088;2022-07-10T10:58:26;97315.25;;;22.51;38.81
20971;BME280;10644;48.834;10.088;2022-07-10T11:00:52;97300.94;;;22.36;38.67
20971;BME280;10644;48.834;10.088;2022-07-10T11:03:22;97291.84;;;22.40;38.12
20971;BME280;10644;48.834;10.088;2022-07-10T11:05:50;97303.41;;;22.47;38.45
20971;BME280;10644;48.834;10.088;2022-07-10T11:08:38;97304.06;;;22.68;37.90
20971;BME280;10644;48.834;10.088;2022-07-10T11:11:39;97292.63;;;22.69;38.12
20971;BME280;10644;48.834;10.088;2022-07-10T11:14:06;97291.56;;;22.62;38.38
20971;BME280;10644;48.834;10.088;2022-07-10T11:19:04;97286.47;;;22.70;37.85
20971;BME280;10644;48.834;10.088;2022-07-10T11:21:45;97293.50;;;22.60;38.21
20971;BME280;10644;48.834;10.088;2022-07-10T11:27:18;97297.53;;;22.91;38.26
20971;BME280;10644;48.834;10.088;2022-07-10T11:30:01;97296.28;;;23.31;37.21
20971;BME280;10644;48.834;10.088;2022-07-10T11:32:27;97287.22;;;23.26;36.19
20971;BME280;10644;48.834;10.088;2022-07-10T11:34:53;97278.44;;;22.90;36.24
20971;BME280;10644;48.834;10.088;2022-07-10T11:37:22;97286.41;;;22.89;36.51
20971;BME280;10644;48.834;10.088;2022-07-10T11:40:12;97292.84;;;23.31;35.50
20971;BME280;10644;48.834;10.088;2022-07-10T11:42:55;97302.34;;;23.32;35.83
20971;BME280;10644;48.834;10.088;2022-07-10T11:45:29;97298.03;;;23.04;36.66
20971;BME280;10644;48.834;10.088;2022-07-10T11:47:55;97297.69;;;23.16;37.09
20971;BME280;10644;48.834;10.088;2022-07-10T11:50:21;97284.78;;;23.42;36.37
20971;BME280;10644;48.834;10.088;2022-07-10T11:52:47;97288.41;;;23.58;36.23
20971;BME280;10644;48.834;10.088;2022-07-10T11:55:22;97290.78;;;23.34;36.79
20971;BME280;10644;48.834;10.088;2022-07-10T11:57:51;97302.84;;;23.08;36.54
20971;BME280;10644;48.834;10.088;2022-07-10T12:01:02;97291.53;;;23.17;36.58
20971;BME280;10644;48.834;10.088;2022-07-10T12:03:30;97285.81;;;23.31;35.34
20971;BME280;10644;48.834;10.088;2022-07-10T12:06:16;97282.69;;;23.45;35.23
20971;BME280;10644;48.834;10.088;2022-07-10T12:08:47;97288.41;;;23.58;34.82
20971;BME280;10644;48.834;10.088;2022-07-10T12:11:28;97292.22;;;23.64;34.67
20971;BME280;10644;48.834;10.088;2022-07-10T12:14:11;97281.69;;;23.73;35.02
20971;BME280;10644;48.834;10.088;2022-07-10T12:16:59;97286.88;;;24.18;34.50
20971;BME280;10644;48.834;10.088;2022-07-10T12:19:30;97290.16;;;23.85;34.68
20971;BME280;10644;48.834;10.088;2022-07-10T12:22:00;97285.66;;;23.60;34.96
20971;BME280;10644;48.834;10.088;2022-07-10T12:24:26;97288.19;;;23.52;34.82
20971;BME280;10644;48.834;10.088;2022-07-10T12:26:53;97281.75;;;23.64;34.54
20971;BME280;10644;48.834;10.088;2022-07-10T12:29:38;97287.03;;;23.99;34.08
20971;BME280;10644;48.834;10.088;2022-07-10T12:32:21;97286.00;;;23.92;33.87
20971;BME280;10644;48.834;10.088;2022-07-10T12:34:48;97293.00;;;23.74;34.23
20971;BME280;10644;48.834;10.088;2022-07-10T12:37:28;97283.88;;;23.78;34.46
20971;BME280;10644;48.834;10.088;2022-07-10T12:39:54;97296.00;;;23.79;34.79
20971;BME280;10644;48.834;10.088;2022-07-10T12:42:31;97291.25;;;23.47;34.59
20971;BME280;10644;48.834;10.088;2022-07-10T12:45:14;97305.00;;;23.13;35.50
20971;BME280;10644;48.834;10.088;2022-07-10T12:47:44;97301.66;;;23.30;35.49
20971;BME280;10644;48.834;10.088;2022-07-10T12:50:13;97300.22;;;24.07;34.61
20971;BME280;10644;48.834;10.088;2022-07-10T12:53:10;97308.97;;;23.98;34.40
20971;BME280;10644;48.834;10.088;2022-07-10T12:55:40;97301.28;;;23.87;34.67
20971;BME280;10644;48.834;10.088;2022-07-10T12:58:20;97293.25;;;23.98;34.85
20971;BME280;10644;48.834;10.088;2022-07-10T13:00:53;97296.94;;;24.05;33.76
20971;BME280;10644;48.834;10.088;2022-07-10T13:03:29;97303.38;;;23.83;34.37
20971;BME280;10644;48.834;10.088;2022-07-10T13:05:55;97300.47;;;23.69;34.58
20971;BME280;10644;48.834;10.088;2022-07-10T13:08:24;97302.03;;;23.35;35.07
20971;BME280;10644;48.834;10.088;2022-07-10T13:11:00;97298.50;;;23.26;35.05
20971;BME280;10644;48.834;10.088;2022-07-10T13:13:29;97296.19;;;22.87;35.62
20971;BME280;10644;48.834;10.088;2022-07-10T13:15:55;97299.75;;;23.32;35.20
20971;BME280;10644;48.834;10.088;2022-07-10T13:18:24;97294.59;;;23.40;35.11
20971;BME280;10644;48.834;10.088;2022-07-10T13:21:03;97292.81;;;23.58;34.70
20971;BME280;10644;48.834;10.088;2022-07-10T13:23:32;97295.31;;;23.77;34.48
20971;BME280;10644;48.834;10.088;2022-07-10T13:25:59;97280.47;;;23.95;33.82
20971;BME280;10644;48.834;10.088;2022-07-10T13:28:26;97291.19;;;24.27;33.18
20971;BME280;10644;48.834;10.088;2022-07-10T13:31:05;97294.31;;;24.48;33.55
20971;BME280;10644;48.834;10.088;2022-07-10T13:33:30;97284.31;;;24.43;33.19
20971;BME280;10644;48.834;10.088;2022-07-10T13:35:59;97294.38;;;24.30;33.36
20971;BME280;10644;48.834;10.088;2022-07-10T13:38:25;97303.66;;;24.50;33.69